Time;durP1;ratioP1;P1;durP2;ratioP2;P2;SDS_P1;SDS_P2;PMS_P1;PMS_P2;Temp;Humidity;BMP_temperature;BMP_pressure;BME280_temperature;BME280_humidity;BME280_pressure;Samples;Min_cycle;Max_cycle;Signal;HPM_P1;HPM_P2
2022/03/22 00:00:40;;;;;;;16.73;8.20;;;;;;;3.93;39.62;102429.66;5045856;28;20029;-65
2022/03/22 00:03:06;;;;;;;12.10;4.82;;;;;;;4.05;39.62;102434.56;5046227;28;20061;-67
2022/03/22 00:05:32;;;;;;;17.33;8.73;;;;;;;3.87;39.81;102433.59;5046028;28;20021;-66
2022/03/22 00:08:00;;;;;;;18.88;8.98;;;;;;;3.79;39.92;102426.38;5028215;28;20081;-66
2022/03/22 00:10:27;;;;;;;10.57;6.70;;;;;;;4.02;39.63;102444.69;5045799;28;20025;-66
2022/03/22 00:12:52;;;;;;;8.95;6.85;;;;;;;3.95;39.77;102443.47;5046078;28;20025;-66
2022/03/22 00:15:18;;;;;;;18.63;7.60;;;;;;;3.79;39.85;102438.31;5045876;28;20029;-66
2022/03/22 00:17:43;;;;;;;17.15;8.60;;;;;;;4.06;39.24;102435.41;5045698;28;20025;-66
2022/03/22 00:20:10;;;;;;;12.85;6.57;;;;;;;3.89;39.70;102438.03;5045727;28;20450;-66
2022/03/22 00:22:40;;;;;;;17.25;9.05;;;;;;;3.81;39.92;102441.88;5044924;28;20091;-66
2022/03/22 00:25:07;;;;;;;16.85;8.48;;;;;;;3.84;39.76;102429.19;5045801;28;20017;-65
2022/03/22 00:27:50;;;;;;;10.98;5.60;;;;;;;3.89;39.82;102432.88;5045726;28;20026;-66
2022/03/22 00:30:17;;;;;;;11.98;7.88;;;;;;;3.72;40.06;102432.00;5045426;28;20093;-65
2022/03/22 00:32:42;;;;;;;15.20;9.38;;;;;;;3.80;39.96;102435.84;5046034;28;20056;-66
2022/03/22 00:35:07;;;;;;;18.02;9.35;;;;;;;3.59;40.31;102428.75;5045533;28;20026;-66
2022/03/22 00:37:37;;;;;;;16.58;9.48;;;;;;;3.61;40.37;102426.28;5045527;28;20025;-66
2022/03/22 00:40:07;;;;;;;15.07;7.68;;;;;;;3.49;40.47;102429.09;5045250;28;20050;-65
2022/03/22 00:42:33;;;;;;;16.13;8.68;;;;;;;3.55;40.50;102431.09;5045352;28;20108;-66
2022/03/22 00:44:58;;;;;;;17.60;8.57;;;;;;;3.56;40.48;102422.59;5027244;28;20025;-66
2022/03/22 00:47:24;;;;;;;18.77;10.20;;;;;;;3.49;40.74;102417.91;5027561;28;20025;-66
2022/03/22 00:49:49;;;;;;;18.77;9.25;;;;;;;3.41;41.04;102423.53;5045211;28;20032;-66
2022/03/22 00:52:14;;;;;;;11.65;5.88;;;;;;;3.44;40.94;102413.44;5045066;28;20424;-66
2022/03/22 00:54:39;;;;;;;18.00;8.68;;;;;;;3.42;41.01;102425.28;5044940;28;20037;-66
2022/03/22 00:57:05;;;;;;;18.80;8.68;;;;;;;3.32;41.29;102417.91;5044876;28;20032;-66
2022/03/22 01:02:14;;;;;;;16.33;8.55;;;;;;;3.36;41.32;102419.84;5045009;28;20040;-66
2022/03/22 01:04:39;;;;;;;19.55;10.43;;;;;;;3.27;41.45;102414.19;5044719;28;20025;-66
2022/03/22 01:07:05;;;;;;;17.08;8.40;;;;;;;3.27;41.43;102412.53;5044827;28;20021;-65
2022/03/22 01:09:31;;;;;;;21.73;8.55;;;;;;;3.20;41.68;102423.25;5044649;28;20019;-65
2022/03/22 01:11:57;;;;;;;19.88;10.50;;;;;;;3.20;41.73;102411.31;5045018;28;20079;-65
2022/03/22 01:14:23;;;;;;;17.10;8.73;;;;;;;3.24;41.66;102419.16;5044785;28;20047;-65
2022/03/22 01:16:48;;;;;;;13.20;7.68;;;;;;;3.21;41.93;102419.91;5044639;28;20047;-65
2022/03/22 01:19:13;;;;;;;15.48;7.13;;;;;;;3.15;41.96;102409.25;5044831;28;20075;-66
2022/03/22 01:21:39;;;;;;;17.77;9.45;;;;;;;3.13;42.01;102410.88;5044499;28;20021;-65
2022/03/22 01:24:06;;;;;;;12.63;8.50;;;;;;;3.09;42.17;102405.59;5044598;28;20112;-66
2022/03/22 01:26:32;;;;;;;17.38;9.13;;;;;;;3.08;42.20;102400.38;5044811;28;20025;-65
2022/03/22 01:28:57;;;;;;;23.55;9.95;;;;;;;3.16;42.03;102401.69;5044209;28;20037;-65
2022/03/22 01:31:23;;;;;;;16.30;8.18;;;;;;;3.08;42.25;102397.81;5044358;28;20128;-66
2022/03/22 01:33:48;;;;;;;14.55;8.27;;;;;;;3.17;42.31;102398.31;5044357;28;20029;-65
2022/03/22 01:36:13;;;;;;;22.23;10.73;;;;;;;3.05;42.46;102397.63;5044383;28;20056;-64
2022/03/22 01:38:39;;;;;;;18.92;10.60;;;;;;;3.02;42.69;102397.47;5044375;28;20029;-65
2022/03/22 01:41:04;;;;;;;16.60;10.40;;;;;;;3.09;42.53;102397.00;5044192;28;20053;-65
2022/03/22 01:43:30;;;;;;;19.55;10.32;;;;;;;3.11;42.52;102395.41;5044258;28;20021;-66
2022/03/22 01:45:56;;;;;;;19.80;9.38;;;;;;;2.97;42.75;102392.09;5043957;28;20026;-64
2022/03/22 01:48:21;;;;;;;12.55;6.13;;;;;;;3.04;42.70;102389.03;5044228;28;20077;-64
2022/03/22 01:50:47;;;;;;;17.40;7.85;;;;;;;2.99;42.83;102387.03;5043531;28;20037;-65
2022/03/22 01:53:13;;;;;;;18.75;8.43;;;;;;;2.88;43.02;102384.75;5044010;28;20098;-64
2022/03/22 01:55:38;;;;;;;17.42;7.95;;;;;;;2.94;42.97;102385.09;5043980;28;20085;-65
2022/03/22 01:58:04;;;;;;;17.88;9.43;;;;;;;2.78;43.34;102379.91;5043859;28;20029;-65
2022/03/22 02:00:29;;;;;;;18.17;9.23;;;;;;;2.85;43.13;102377.78;5043749;28;20025;-64
2022/03/22 02:05:56;;;;;;;15.70;8.88;;;;;;;2.76;43.48;102371.25;5043794;28;20079;-64
2022/03/22 02:08:30;;;;;;;21.60;10.60;;;;;;;2.83;43.56;102375.91;5043600;28;20044;-64
2022/03/22 02:10:59;;;;;;;18.42;9.98;;;;;;;2.72;43.81;102383.91;5043532;28;20049;-64
2022/03/22 02:13:25;;;;;;;18.08;11.32;;;;;;;2.69;43.86;102373.47;5043686;28;20156;-64
2022/03/22 02:15:54;;;;;;;21.33;10.50;;;;;;;2.55;44.14;102374.38;5043548;28;20026;-65
2022/03/22 02:18:20;;;;;;;21.98;12.13;;;;;;;2.66;44.04;102378.44;5043596;28;20048;-65
2022/03/22 02:20:46;;;;;;;22.58;11.73;;;;;;;2.58;44.08;102369.41;5043395;28;20025;-64
2022/03/22 02:23:20;;;;;;;20.15;11.20;;;;;;;2.56;44.28;102371.00;5043513;28;20047;-65
2022/03/22 02:25:50;;;;;;;24.45;10.68;;;;;;;2.54;44.31;102370.03;5043527;28;20021;-64
2022/03/22 02:28:16;;;;;;;21.63;10.63;;;;;;;2.52;44.39;102371.63;5043617;28;20028;-64
2022/03/22 02:30:44;;;;;;;18.70;9.60;;;;;;;2.54;44.43;102370.03;5043138;28;20026;-64
2022/03/22 02:33:11;;;;;;;17.98;9.15;;;;;;;2.54;44.39;102372.59;5043410;28;20469;-64
2022/03/22 02:35:36;;;;;;;18.42;10.60;;;;;;;2.49;44.63;102362.09;5043414;28;20084;-65
2022/03/22 02:38:04;;;;;;;16.85;9.55;;;;;;;2.52;44.77;102363.94;5043260;28;20278;-64
2022/03/22 02:40:29;;;;;;;18.40;12.27;;;;;;;2.53;44.71;102364.03;5043036;28;20068;-65
2022/03/22 02:42:59;;;;;;;24.92;12.23;;;;;;;2.50;44.84;102356.16;5043303;28;20429;-64
2022/03/22 02:45:24;;;;;;;21.25;11.23;;;;;;;2.50;44.91;102357.84;5042500;28;20079;-65
2022/03/22 02:47:50;;;;;;;19.83;12.75;;;;;;;2.47;45.11;102362.00;5043550;28;20014;-64
2022/03/22 02:50:16;;;;;;;17.58;10.18;;;;;;;2.52;45.27;102361.38;5042953;28;20493;-64
2022/03/22 02:52:44;;;;;;;20.48;11.77;;;;;;;2.42;45.35;102360.84;5043346;28;20037;-64
2022/03/22 02:55:10;;;;;;;22.52;11.50;;;;;;;2.42;45.42;102355.72;5043113;28;20517;-64
2022/03/22 02:57:37;;;;;;;15.20;8.68;;;;;;;2.39;45.67;102357.22;5043441;28;20042;-64
2022/03/22 03:00:06;;;;;;;20.38;10.20;;;;;;;2.32;45.61;102356.88;5042913;28;20024;-64
2022/03/22 03:02:31;;;;;;;18.77;11.13;;;;;;;2.35;45.70;102358.72;5043012;28;20025;-65
2022/03/22 03:04:57;;;;;;;22.25;12.02;;;;;;;2.32;45.60;102362.00;5042941;28;20076;-64
2022/03/22 03:07:22;;;;;;;24.85;11.85;;;;;;;2.31;46.00;102357.69;5043168;28;20131;-66
2022/03/22 03:09:48;;;;;;;24.58;12.48;;;;;;;2.23;46.13;102354.69;5042935;28;20045;-65
2022/03/22 03:12:14;;;;;;;20.60;11.05;;;;;;;2.22;46.10;102349.47;5042946;28;20026;-65
2022/03/22 03:14:39;;;;;;;22.58;12.13;;;;;;;2.19;46.17;102352.72;5042939;28;20388;-65
2022/03/22 03:17:06;;;;;;;22.45;11.32;;;;;;;2.08;46.48;102351.22;5042954;28;20485;-65
2022/03/22 03:19:32;;;;;;;28.75;13.10;;;;;;;2.06;46.46;102360.50;5042568;28;20021;-67
2022/03/22 03:21:58;;;;;;;19.23;10.68;;;;;;;2.05;46.67;102357.06;5042773;28;20033;-65
2022/03/22 03:24:23;;;;;;;23.42;11.40;;;;;;;2.02;46.84;102361.09;5042928;28;20025;-65
2022/03/22 03:26:49;;;;;;;23.85;11.82;;;;;;;1.96;46.91;102369.31;5042853;28;20076;-66
2022/03/22 03:29:14;;;;;;;23.88;10.95;;;;;;;1.92;46.79;102359.66;5042636;28;20079;-65
2022/03/22 03:31:40;;;;;;;22.38;12.02;;;;;;;1.89;47.02;102359.50;5042881;28;20093;-66
2022/03/22 03:34:05;;;;;;;19.90;10.50;;;;;;;1.95;47.15;102365.88;5042877;28;20017;-65
2022/03/22 03:36:30;;;;;;;23.02;12.65;;;;;;;1.86;47.67;102367.91;5042659;28;20030;-65
2022/03/22 03:38:56;;;;;;;21.20;11.55;;;;;;;1.87;47.45;102367.09;5042618;28;20473;-66
2022/03/22 03:47:05;;;;;;;23.23;11.93;;;;;;;1.83;47.87;102355.81;5042702;28;20033;-65
2022/03/22 03:50:05;;;;;;;25.27;12.88;;;;;;;1.84;47.96;102359.22;5042789;28;20132;-65
2022/03/22 03:52:33;;;;;;;27.17;12.57;;;;;;;1.86;48.38;102357.66;5026176;28;20092;-65
2022/03/22 03:55:00;;;;;;;22.85;12.27;;;;;;;1.78;48.13;102362.31;5042591;28;20044;-64
2022/03/22 03:57:26;;;;;;;23.90;11.93;;;;;;;1.77;48.17;102363.13;5043033;28;20096;-65
2022/03/22 03:59:53;;;;;;;23.27;12.23;;;;;;;1.75;48.39;102361.25;5046271;28;20025;-64
2022/03/22 04:02:19;;;;;;;19.40;9.68;;;;;;;1.66;48.50;102347.09;5046117;28;20067;-65
2022/03/22 04:04:51;;;;;;;22.17;10.45;;;;;;;1.76;48.51;102357.91;5046031;28;20080;-65
2022/03/22 04:07:18;;;;;;;22.23;10.20;;;;;;;1.77;48.70;102362.22;5046000;28;20021;-65
2022/03/22 04:09:43;;;;;;;21.48;12.27;;;;;;;1.70;48.77;102358.41;5045763;28;20020;-65
2022/03/22 04:12:09;;;;;;;22.65;10.27;;;;;;;1.71;48.94;102355.06;5046179;28;20057;-65
2022/03/22 04:14:34;;;;;;;11.27;7.93;;;;;;;1.77;48.88;102360.56;5045673;28;20478;-65
2022/03/22 04:17:00;;;;;;;27.17;11.52;;;;;;;1.68;48.98;102365.09;5045983;28;20063;-66
2022/03/22 04:19:26;;;;;;;23.38;10.27;;;;;;;1.66;49.23;102354.78;5045911;28;20018;-66
2022/03/22 04:21:52;;;;;;;23.08;11.70;;;;;;;1.61;49.23;102354.50;5045775;28;20040;-65
2022/03/22 04:24:18;;;;;;;10.48;6.93;;;;;;;1.74;49.20;102357.81;5045798;28;20033;-66
2022/03/22 04:26:45;;;;;;;16.95;8.13;;;;;;;1.62;49.45;102350.28;5045796;28;20076;-66
2022/03/22 04:34:42;;;;;;;17.23;8.38;;;;;;;1.77;49.61;102347.75;5045613;28;20063;-65
2022/03/22 04:37:12;;;;;;;16.13;8.10;;;;;;;1.69;50.01;102347.28;5045650;28;20124;-66
2022/03/22 04:39:40;;;;;;;22.63;10.73;;;;;;;1.76;50.04;102348.53;5045291;28;20077;-65
2022/03/22 04:42:06;;;;;;;17.50;8.43;;;;;;;1.71;50.08;102340.56;5045565;28;20025;-66
2022/03/22 04:44:32;;;;;;;13.38;6.68;;;;;;;1.79;50.28;102356.38;5045236;28;20022;-66
2022/03/22 04:46:58;;;;;;;18.80;9.63;;;;;;;1.70;50.35;102353.28;5045414;28;20108;-67
2022/03/22 04:49:25;;;;;;;17.70;9.45;;;;;;;1.64;50.84;102356.38;5045313;28;20041;-66
2022/03/22 04:57:18;;;;;;;16.40;8.88;;;;;;;1.59;51.30;102361.22;5045153;28;20051;-66
2022/03/22 04:59:44;;;;;;;21.95;11.30;;;;;;;1.59;51.49;102358.66;5026912;28;20081;-66
2022/03/22 05:02:10;;;;;;;12.27;7.75;;;;;;;1.69;51.52;102361.78;5045267;28;20025;-65
2022/03/22 05:04:36;;;;;;;18.20;9.23;;;;;;;1.72;51.43;102347.47;5027065;28;20025;-66
2022/03/22 05:07:02;;;;;;;22.52;11.60;;;;;;;1.59;51.98;102347.53;5045161;28;20029;-65
2022/03/22 05:09:28;;;;;;;26.33;12.77;;;;;;;1.50;52.13;102349.53;5044482;28;20136;-65
2022/03/22 05:11:55;;;;;;;25.42;12.00;;;;;;;1.51;52.40;102349.63;5045053;28;20025;-65
2022/03/22 05:14:20;;;;;;;22.23;10.68;;;;;;;1.54;52.46;102359.16;5044652;28;20089;-65
2022/03/22 05:16:45;;;;;;;21.52;11.63;;;;;;;1.51;52.70;102358.97;5026954;28;20112;-66
2022/03/22 05:19:12;;;;;;;23.65;12.52;;;;;;;1.46;52.84;102362.16;5026826;28;20375;-66
2022/03/22 05:21:38;;;;;;;27.67;12.57;;;;;;;1.45;53.26;102362.91;5044836;28;20478;-66
2022/03/22 05:24:03;;;;;;;19.05;10.70;;;;;;;1.54;53.16;102367.72;5044883;28;20037;-65
2022/03/22 05:26:29;;;;;;;27.92;14.35;;;;;;;1.43;53.52;102358.50;5044751;28;20022;-65
2022/03/22 05:28:55;;;;;;;23.80;11.80;;;;;;;1.52;53.28;102358.19;5044557;28;20070;-66
2022/03/22 05:31:21;;;;;;;25.27;13.85;;;;;;;1.50;53.42;102359.78;5044130;28;20037;-65
2022/03/22 05:33:48;;;;;;;27.95;12.45;;;;;;;1.45;53.51;102356.94;5044680;28;20025;-66
2022/03/22 05:36:13;;;;;;;26.33;11.85;;;;;;;1.61;53.46;102367.28;5026636;28;20025;-66
2022/03/22 05:38:38;;;;;;;29.35;16.05;;;;;;;1.38;53.24;102324.97;5044285;28;20083;-65
2022/03/22 05:41:04;;;;;;;25.58;13.15;;;;;;;1.68;53.64;102365.09;5044043;28;20109;-68
2022/03/22 05:43:30;;;;;;;25.83;13.73;;;;;;;1.79;53.53;102368.34;5044283;28;20029;-69
2022/03/22 05:45:56;;;;;;;19.10;11.88;;;;;;;1.95;53.28;102362.44;5044014;28;20386;-68
2022/03/22 05:48:23;;;;;;;24.13;12.48;;;;;;;2.03;53.07;102363.75;5044150;28;20021;-67
2022/03/22 05:50:49;;;;;;;23.80;11.15;;;;;;;2.15;52.85;102368.72;5044013;28;20521;-63
2022/03/22 05:53:14;;;;;;;18.50;9.10;;;;;;;2.25;52.78;102365.03;5044197;28;20029;-63
2022/03/22 05:55:41;;;;;;;26.98;13.00;;;;;;;2.31;52.50;102370.50;5044059;28;20025;-63
2022/03/22 05:58:08;;;;;;;21.98;11.55;;;;;;;2.39;52.79;102370.03;5043753;28;20032;-66
2022/03/22 06:00:34;;;;;;;28.75;13.30;;;;;;;2.39;52.90;102373.50;5043709;28;20049;-66
2022/03/22 06:02:59;;;;;;;30.88;14.65;;;;;;;2.47;53.03;102379.97;5043730;28;20086;-65
2022/03/22 06:05:25;;;;;;;21.90;12.85;;;;;;;2.69;52.76;102377.69;5043713;28;20032;-66
2022/03/22 06:07:50;;;;;;;29.80;14.88;;;;;;;2.87;52.11;102365.03;5043642;28;20052;-65
2022/03/22 06:10:16;;;;;;;20.42;11.93;;;;;;;3.00;51.58;102360.56;5043697;28;20026;-66
2022/03/22 06:12:47;;;;;;;21.40;11.38;;;;;;;3.04;51.57;102370.19;5043664;28;20045;-66
2022/03/22 06:15:14;;;;;;;28.20;13.68;;;;;;;3.24;51.46;102368.72;5043448;28;20077;-66
2022/03/22 06:17:41;;;;;;;28.02;14.52;;;;;;;3.30;51.17;102366.47;5043530;28;20021;-65
2022/03/22 06:20:07;;;;;;;19.95;11.55;;;;;;;3.50;50.89;102376.91;5042953;28;20029;-65
2022/03/22 06:22:32;;;;;;;23.00;12.63;;;;;;;3.68;50.71;102379.56;5043583;28;20124;-67
2022/03/22 06:24:58;;;;;;;22.10;12.32;;;;;;;3.90;50.13;102383.25;5043419;28;20390;-65
2022/03/22 06:27:23;;;;;;;31.35;16.35;;;;;;;3.95;50.36;102384.38;5043493;28;20029;-66
2022/03/22 06:29:48;;;;;;;29.20;15.65;;;;;;;4.31;50.10;102393.84;5042759;28;20021;-65
2022/03/22 06:32:14;;;;;;;26.35;15.35;;;;;;;4.57;49.35;102394.25;5043113;28;20025;-66
2022/03/22 06:34:39;;;;;;;26.17;15.27;;;;;;;4.90;48.72;102392.34;5043248;28;20026;-66
2022/03/22 06:37:05;;;;;;;33.15;15.00;;;;;;;5.03;48.60;102396.38;5043353;28;20048;-67
2022/03/22 06:39:30;;;;;;;31.75;16.33;;;;;;;5.30;48.67;102388.16;5043440;28;20489;-67
2022/03/22 06:41:55;;;;;;;25.20;14.68;;;;;;;5.62;47.44;102386.16;5043586;28;20056;-66
2022/03/22 06:44:21;;;;;;;29.23;15.15;;;;;;;5.70;47.57;102389.94;5043140;28;20021;-66
2022/03/22 06:46:46;;;;;;;28.83;16.02;;;;;;;6.03;47.17;102385.28;5043633;28;20025;-66
2022/03/22 06:49:12;;;;;;;30.27;16.60;;;;;;;6.25;47.07;102384.53;5043586;28;20056;-66
2022/03/22 06:51:37;;;;;;;36.75;17.33;;;;;;;6.45;46.75;102390.50;5025383;28;20075;-66
2022/03/22 06:54:03;;;;;;;30.10;16.65;;;;;;;6.74;46.34;102384.75;5042734;28;20444;-66
2022/03/22 06:56:28;;;;;;;29.45;16.58;;;;;;;6.88;45.46;102387.88;5025041;28;20045;-66
2022/03/22 06:58:53;;;;;;;33.10;16.98;;;;;;;6.90;45.36;102373.31;5042411;28;20025;-66
2022/03/22 07:01:19;;;;;;;28.95;16.10;;;;;;;6.99;45.64;102379.66;5042301;28;20036;-66
2022/03/22 07:03:44;;;;;;;32.40;17.35;;;;;;;7.11;45.61;102392.19;5042586;28;20231;-66
2022/03/22 07:06:09;;;;;;;30.60;16.98;;;;;;;7.44;45.35;102384.78;5042581;28;20025;-67
2022/03/22 07:08:35;;;;;;;33.35;18.25;;;;;;;7.82;44.92;102388.69;5042649;28;20022;-65
2022/03/22 07:13:44;;;;;;;32.92;16.98;;;;;;;8.66;44.10;102388.91;5027825;28;20033;-65
2022/03/22 07:16:10;;;;;;;32.80;17.60;;;;;;;9.04;43.71;102390.06;5042397;28;20085;-66
2022/03/22 07:18:35;;;;;;;33.00;17.73;;;;;;;9.51;42.66;102387.06;5042592;28;20025;-65
2022/03/22 07:21:04;;;;;;;28.40;17.15;;;;;;;9.92;41.64;102386.44;5042398;28;20023;-66
2022/03/22 07:23:30;;;;;;;30.00;16.60;;;;;;;10.26;41.26;102385.53;5042550;28;20021;-66
2022/03/22 07:25:55;;;;;;;30.30;17.30;;;;;;;10.52;40.41;102386.22;5042556;28;20070;-66
2022/03/22 07:28:20;;;;;;;33.08;17.10;;;;;;;10.80;40.34;102385.97;5042312;28;20192;-65
2022/03/22 07:30:45;;;;;;;29.65;17.77;;;;;;;11.14;40.19;102384.13;5042145;28;20025;-65
2022/03/22 07:33:11;;;;;;;26.83;16.98;;;;;;;11.74;39.97;102396.53;5045476;28;20013;-65
2022/03/22 07:35:36;;;;;;;31.95;18.60;;;;;;;12.25;39.09;102395.72;5046260;28;20167;-66
2022/03/22 07:38:02;;;;;;;30.67;19.08;;;;;;;12.61;37.85;102391.94;5046313;28;20048;-66
2022/03/22 07:40:28;;;;;;;33.85;18.90;;;;;;;12.85;38.01;102390.56;5046001;28;20056;-65
2022/03/22 07:42:53;;;;;;;26.60;17.38;;;;;;;13.24;37.15;102385.81;5046082;28;20028;-66
2022/03/22 07:45:19;;;;;;;39.92;18.98;;;;;;;13.37;36.87;102399.06;5045778;28;20029;-66
2022/03/22 07:47:45;;;;;;;34.50;20.77;;;;;;;13.65;35.85;102396.78;5046248;28;20105;-65
2022/03/22 07:52:58;;;;;;;32.83;19.58;;;;;;;13.65;35.76;102402.00;5045952;28;20056;-66
2022/03/22 07:55:24;;;;;;;31.00;17.60;;;;;;;13.59;35.89;102400.19;5045837;28;20026;-66
2022/03/22 07:57:49;;;;;;;30.10;18.50;;;;;;;14.11;36.14;102401.56;5045904;28;20253;-66
2022/03/22 08:00:17;;;;;;;41.00;18.50;;;;;;;14.41;35.44;102414.00;5045525;28;20053;-66
2022/03/22 08:03:10;;;;;;;32.85;19.02;;;;;;;14.87;35.32;102409.09;5045963;28;20081;-65
2022/03/22 08:05:37;;;;;;;35.72;18.58;;;;;;;15.02;34.18;102415.28;5046049;28;20017;-65
2022/03/22 08:08:06;;;;;;;31.45;19.23;;;;;;;14.93;33.84;102410.00;5045809;28;20082;-66
2022/03/22 08:10:32;;;;;;;29.60;18.90;;;;;;;14.95;34.25;102409.13;5045688;28;20112;-66
2022/03/22 08:13:01;;;;;;;29.27;17.80;;;;;;;15.11;33.88;102412.72;5045632;28;20120;-70
2022/03/22 08:15:27;;;;;;;24.73;18.85;;;;;;;15.43;33.59;102408.47;5045054;28;20022;-66
2022/03/22 08:17:52;;;;;;;32.55;20.42;;;;;;;15.68;32.83;102412.91;5044897;28;20033;-72
2022/03/22 08:20:18;;;;;;;29.95;20.65;;;;;;;15.79;32.45;102418.16;5045448;28;20021;-71
2022/03/22 08:22:50;;;;;;;33.05;22.52;;;;;;;15.90;32.86;102411.22;5045586;28;20053;-71
2022/03/22 08:25:17;;;;;;;30.13;20.67;;;;;;;16.03;32.95;102408.63;5045288;28;20047;-71
2022/03/22 08:27:44;;;;;;;33.15;21.40;;;;;;;16.18;32.70;102413.88;5045420;28;20401;-70
2022/03/22 08:30:10;;;;;;;32.63;20.67;;;;;;;16.09;32.45;102414.75;5044977;28;20025;-72
2022/03/22 08:32:35;;;;;;;37.63;21.15;;;;;;;16.22;32.55;102413.03;5045162;28;20017;-67
2022/03/22 08:35:01;;;;;;;32.80;23.15;;;;;;;16.43;32.57;102421.75;5045101;28;20030;-63
2022/03/22 08:37:26;;;;;;;34.00;21.55;;;;;;;16.58;32.15;102420.84;5045237;28;20017;-65
2022/03/22 08:39:52;;;;;;;34.78;21.48;;;;;;;16.65;31.88;102418.22;5044981;28;20055;-66
2022/03/22 08:42:17;;;;;;;33.47;23.38;;;;;;;16.87;31.44;102416.41;5045000;28;20437;-65
2022/03/22 08:44:44;;;;;;;29.17;22.13;;;;;;;16.84;31.16;102417.31;5044033;28;20044;-65
2022/03/22 08:47:10;;;;;;;30.23;21.70;;;;;;;16.70;31.49;102425.22;5045234;28;20041;-65
2022/03/22 08:49:35;;;;;;;32.75;22.20;;;;;;;16.60;32.07;102428.72;5044845;28;20017;-66
2022/03/22 08:52:00;;;;;;;36.40;25.63;;;;;;;16.66;32.39;102426.06;5044816;28;20053;-65
2022/03/22 08:54:27;;;;;;;35.88;24.17;;;;;;;16.78;31.72;102419.94;5044905;28;20242;-66
2022/03/22 08:56:52;;;;;;;34.30;22.58;;;;;;;16.97;31.63;102420.78;5044503;28;20026;-68
2022/03/22 08:59:17;;;;;;;35.70;23.73;;;;;;;17.08;31.26;102430.38;5044097;28;20025;-65
2022/03/22 09:01:45;;;;;;;34.95;24.02;;;;;;;16.95;31.42;102419.91;5044185;28;20032;-64
2022/03/22 09:06:54;;;;;;;34.92;24.58;;;;;;;16.80;31.48;102426.06;5044914;28;20039;-64
2022/03/22 09:09:20;;;;;;;32.30;23.38;;;;;;;16.83;31.89;102417.31;5044691;28;20046;-65
2022/03/22 09:11:45;;;;;;;37.35;21.75;;;;;;;16.95;31.60;102416.38;5044567;28;20029;-65
2022/03/22 09:14:11;;;;;;;41.22;24.27;;;;;;;17.04;31.67;102416.38;5044710;28;20037;-65
2022/03/22 09:16:37;;;;;;;34.15;23.50;;;;;;;17.16;31.69;102419.84;5044320;28;20089;-65
2022/03/22 09:19:03;;;;;;;38.60;26.05;;;;;;;17.24;31.59;102414.59;5044428;28;20100;-65
2022/03/22 09:21:29;;;;;;;34.65;23.58;;;;;;;17.23;31.53;102416.34;5044350;28;20029;-65
2022/03/22 09:23:55;;;;;;;34.88;23.83;;;;;;;17.44;31.68;102419.75;5044380;28;20588;-65
2022/03/22 09:26:20;;;;;;;39.25;25.13;;;;;;;17.59;31.19;102417.03;5044201;28;20026;-65
2022/03/22 09:28:45;;;;;;;38.38;24.10;;;;;;;17.74;30.94;102417.81;5044122;28;20024;-63
2022/03/22 09:31:11;;;;;;;33.83;24.45;;;;;;;17.80;30.81;102416.91;5043817;28;20049;-64
2022/03/22 09:33:37;;;;;;;36.03;24.63;;;;;;;17.87;30.55;102423.00;5026125;28;20025;-65
2022/03/22 09:36:03;;;;;;;34.75;23.67;;;;;;;18.23;30.58;102420.13;5044116;28;20029;-66
2022/03/22 09:38:29;;;;;;;36.67;24.25;;;;;;;18.69;29.75;102424.09;5044189;28;20484;-66
2022/03/22 09:40:54;;;;;;;35.70;24.98;;;;;;;19.04;29.53;102416.69;5043949;28;20042;-66
2022/03/22 09:43:23;;;;;;;35.33;23.40;;;;;;;19.30;28.46;102412.88;5044143;28;20061;-66
2022/03/22 09:45:50;;;;;;;34.05;23.40;;;;;;;19.11;28.06;102420.13;5043958;28;20056;-67
2022/03/22 09:48:17;;;;;;;36.78;24.95;;;;;;;18.91;28.22;102415.97;5026135;28;20021;-66
2022/03/22 09:53:27;;;;;;;36.35;24.73;;;;;;;19.02;28.39;102414.06;5043832;28;20060;-66
2022/03/22 09:55:52;;;;;;;42.53;24.65;;;;;;;19.41;27.74;102415.38;5043933;28;20030;-66
2022/03/22 09:58:18;;;;;;;39.60;23.70;;;;;;;19.54;27.22;102424.84;5043617;28;20521;-66
2022/03/22 10:00:43;;;;;;;34.35;25.27;;;;;;;19.65;26.97;102421.19;5043427;28;20033;-66
2022/03/22 10:03:20;;;;;;;31.40;22.58;;;;;;;19.65;26.21;102418.56;5043789;28;20535;-67
2022/03/22 10:05:57;;;;;;;41.22;22.45;;;;;;;19.58;26.38;102425.69;5043515;28;20031;-67
2022/03/22 10:08:23;;;;;;;31.05;22.33;;;;;;;19.36;26.30;102419.84;5043676;28;20045;-66
2022/03/22 10:10:57;;;;;;;32.05;22.92;;;;;;;19.29;27.28;102419.91;5043152;28;20025;-66
2022/03/22 10:13:23;;;;;;;35.17;24.38;;;;;;;19.74;26.56;102420.19;5043394;28;20030;-66
2022/03/22 10:15:49;;;;;;;35.20;22.48;;;;;;;20.09;26.13;102429.34;5043289;28;20025;-66
2022/03/22 10:18:21;;;;;;;35.85;23.52;;;;;;;20.13;25.90;102428.38;5043442;28;20025;-66
2022/03/22 10:20:46;;;;;;;33.78;23.33;;;;;;;19.92;25.88;102419.03;5043157;28;20025;-66
2022/03/22 10:23:12;;;;;;;31.48;21.95;;;;;;;19.82;26.23;102419.16;5043242;28;20045;-66
2022/03/22 10:25:40;;;;;;;34.65;24.25;;;;;;;19.71;26.04;102425.50;5043014;28;20260;-66
2022/03/22 10:28:07;;;;;;;34.50;24.20;;;;;;;19.64;26.46;102425.59;5043142;28;20029;-66
2022/03/22 10:30:34;;;;;;;33.30;24.70;;;;;;;19.74;26.33;102423.69;5043169;28;20075;-66
2022/03/22 10:33:00;;;;;;;37.85;23.35;;;;;;;19.55;26.90;102426.56;5043210;28;20029;-70
2022/03/22 10:35:28;;;;;;;35.90;24.30;;;;;;;19.47;27.12;102417.94;5042931;28;20040;-67
2022/03/22 10:38:02;;;;;;;36.47;25.38;;;;;;;19.43;27.27;102408.31;5043028;28;20025;-67
2022/03/22 10:40:31;;;;;;;41.75;24.98;;;;;;;19.31;27.67;102418.13;5024923;28;20038;-66
2022/03/22 10:43:08;;;;;;;35.88;24.95;;;;;;;19.33;28.01;102415.47;5042986;28;20032;-68
2022/03/22 10:46:00;;;;;;;37.53;23.50;;;;;;;19.39;27.59;102420.63;5042839;28;20048;-66
2022/03/22 10:48:36;;;;;;;34.80;24.52;;;;;;;19.59;27.13;102410.72;5040025;28;20152;-65
2022/03/22 10:51:03;;;;;;;35.83;24.45;;;;;;;19.62;27.41;102415.94;5042661;28;20045;-68
2022/03/22 10:53:31;;;;;;;39.70;25.90;;;;;;;19.77;27.98;102406.97;5042564;28;20053;-67
2022/03/22 10:55:58;;;;;;;44.80;24.25;;;;;;;19.81;27.67;102412.16;5042614;28;20110;-65
2022/03/22 10:58:27;;;;;;;33.88;24.52;;;;;;;19.70;27.21;102419.34;5042338;28;20033;-64
2022/03/22 11:00:53;;;;;;;33.15;24.77;;;;;;;19.45;27.62;102411.81;5042730;28;20405;-67
2022/03/22 11:03:20;;;;;;;33.70;24.27;;;;;;;19.24;27.65;102420.84;5042831;28;20077;-69
2022/03/22 11:05:48;;;;;;;35.75;23.95;;;;;;;18.97;27.48;102418.50;5043413;28;20064;-71
2022/03/22 11:08:18;;;;;;;39.05;25.13;;;;;;;18.81;28.25;102418.69;5048914;28;20071;-70
2022/03/22 11:10:44;;;;;;;36.75;25.10;;;;;;;18.86;28.30;102420.41;5049510;28;20056;-70
2022/03/22 11:13:10;;;;;;;37.05;24.23;;;;;;;19.14;28.29;102414.81;5049020;28;20021;-69
2022/03/22 11:15:38;;;;;;;39.10;26.27;;;;;;;19.30;28.09;102408.47;5049083;28;20025;-70
2022/03/22 11:18:06;;;;;;;38.50;25.80;;;;;;;19.50;28.04;102409.09;5049150;28;20022;-70
2022/03/22 11:20:32;;;;;;;39.70;27.17;;;;;;;19.62;27.42;102415.94;5049205;28;20036;-68
2022/03/22 11:22:57;;;;;;;40.17;26.75;;;;;;;19.74;27.11;102417.53;5049281;28;20025;-69
2022/03/22 11:25:31;;;;;;;37.90;26.35;;;;;;;20.28;27.00;102411.44;5049179;28;20025;-68
2022/03/22 11:27:59;;;;;;;39.50;25.17;;;;;;;20.30;26.36;102420.19;5049274;28;20083;-69
2022/03/22 11:30:26;;;;;;;38.58;27.27;;;;;;;20.36;26.76;102413.06;5030949;28;20030;-70
2022/03/22 11:35:51;;;;;;;37.15;27.40;;;;;;;20.60;26.30;102417.03;5049056;28;20040;-70
2022/03/22 11:38:36;;;;;;;41.22;26.88;;;;;;;20.63;26.09;102413.44;5048970;28;20052;-70
2022/03/22 11:43:46;;;;;;;36.55;26.98;;;;;;;20.74;25.37;102411.47;5048948;28;20047;-70
2022/03/22 11:46:12;;;;;;;37.03;26.83;;;;;;;20.04;25.80;102408.31;5048613;28;20057;-69
2022/03/22 11:48:40;;;;;;;39.80;27.52;;;;;;;18.74;26.97;102406.47;5048945;28;20021;-70
2022/03/22 11:51:07;;;;;;;37.83;26.63;;;;;;;17.33;28.86;102398.81;5048877;28;20029;-70
2022/03/22 11:53:43;;;;;;;41.17;26.35;;;;;;;16.04;30.68;102405.16;5049012;28;20025;-69